sensor_id;sensor_type;location;lat;lon;timestamp;temperature;humidity
48551;DHT22;34397;51.176;6.738;2022-07-09T00:02:19;18.70;52.60
48551;DHT22;34397;51.176;6.738;2022-07-09T00:04:50;18.60;52.60
48551;DHT22;34397;51.176;6.738;2022-07-09T00:07:22;18.60;51.50
48551;DHT22;34397;51.176;6.738;2022-07-09T00:09:55;18.60;52.50
48551;DHT22;34397;51.176;6.738;2022-07-09T00:12:26;18.60;52.60
48551;DHT22;34397;51.176;6.738;2022-07-09T00:14:58;18.50;52.80
48551;DHT22;34397;51.176;6.738;2022-07-09T00:17:31;18.50;53.00
48551;DHT22;34397;51.176;6.738;2022-07-09T00:20:04;18.40;53.00
48551;DHT22;34397;51.176;6.738;2022-07-09T00:22:36;18.40;53.10
48551;DHT22;34397;51.176;6.738;2022-07-09T00:25:08;18.40;52.10
48551;DHT22;34397;51.176;6.738;2022-07-09T00:27:40;18.40;53.00
48551;DHT22;34397;51.176;6.738;2022-07-09T00:30:12;18.30;53.10
48551;DHT22;34397;51.176;6.738;2022-07-09T00:32:45;18.30;53.20
48551;DHT22;34397;51.176;6.738;2022-07-09T00:35:16;18.20;53.40
48551;DHT22;34397;51.176;6.738;2022-07-09T00:37:48;18.20;52.30
48551;DHT22;34397;51.176;6.738;2022-07-09T00:40:20;18.20;53.20
48551;DHT22;34397;51.176;6.738;2022-07-09T00:42:52;18.20;53.30
48551;DHT22;34397;51.176;6.738;2022-07-09T00:45:24;18.20;53.40
48551;DHT22;34397;51.176;6.738;2022-07-09T00:47:58;18.20;54.10
48551;DHT22;34397;51.176;6.738;2022-07-09T00:50:30;18.10;53.60
48551;DHT22;34397;51.176;6.738;2022-07-09T00:53:02;18.10;53.60
48551;DHT22;34397;51.176;6.738;2022-07-09T00:55:34;18.00;53.60
48551;DHT22;34397;51.176;6.738;2022-07-09T00:58:08;18.10;53.70
48551;DHT22;34397;51.176;6.738;2022-07-09T01:00:41;18.00;53.80
48551;DHT22;34397;51.176;6.738;2022-07-09T01:03:15;17.90;53.80
48551;DHT22;34397;51.176;6.738;2022-07-09T01:05:47;17.90;54.00
48551;DHT22;34397;51.176;6.738;2022-07-09T01:08:20;17.90;54.10
48551;DHT22;34397;51.176;6.738;2022-07-09T01:10:52;17.90;54.00
48551;DHT22;34397;51.176;6.738;2022-07-09T01:13:25;17.90;54.10
48551;DHT22;34397;51.176;6.738;2022-07-09T01:15:57;18.00;53.60
48551;DHT22;34397;51.176;6.738;2022-07-09T01:18:30;17.80;54.00
48551;DHT22;34397;51.176;6.738;2022-07-09T01:21:03;17.80;54.10
48551;DHT22;34397;51.176;6.738;2022-07-09T01:23:35;17.80;54.00
48551;DHT22;34397;51.176;6.738;2022-07-09T01:26:07;17.80;54.00
48551;DHT22;34397;51.176;6.738;2022-07-09T01:28:39;17.70;54.20
48551;DHT22;34397;51.176;6.738;2022-07-09T01:31:11;17.70;54.30
48551;DHT22;34397;51.176;6.738;2022-07-09T01:33:43;17.70;54.50
48551;DHT22;34397;51.176;6.738;2022-07-09T01:36:17;17.60;54.60
48551;DHT22;34397;51.176;6.738;2022-07-09T01:38:49;17.60;54.80
48551;DHT22;34397;51.176;6.738;2022-07-09T01:41:21;17.60;54.80
48551;DHT22;34397;51.176;6.738;2022-07-09T01:43:53;17.60;54.90
48551;DHT22;34397;51.176;6.738;2022-07-09T01:46:25;17.50;55.00
48551;DHT22;34397;51.176;6.738;2022-07-09T01:48:57;17.50;55.00
48551;DHT22;34397;51.176;6.738;2022-07-09T01:51:30;17.50;55.10
48551;DHT22;34397;51.176;6.738;2022-07-09T01:54:05;17.50;55.20
48551;DHT22;34397;51.176;6.738;2022-07-09T01:56:36;17.50;55.30
48551;DHT22;34397;51.176;6.738;2022-07-09T01:59:08;17.50;55.40
48551;DHT22;34397;51.176;6.738;2022-07-09T02:01:40;17.50;55.50
48551;DHT22;34397;51.176;6.738;2022-07-09T02:04:12;17.50;55.60
48551;DHT22;34397;51.176;6.738;2022-07-09T02:06:45;17.50;55.70
48551;DHT22;34397;51.176;6.738;2022-07-09T02:09:17;17.50;55.80
48551;DHT22;34397;51.176;6.738;2022-07-09T02:11:48;17.50;54.80
48551;DHT22;34397;51.176;6.738;2022-07-09T02:14:20;17.60;55.50
48551;DHT22;34397;51.176;6.738;2022-07-09T02:16:52;17.60;55.50
48551;DHT22;34397;51.176;6.738;2022-07-09T02:19:24;17.70;55.70
48551;DHT22;34397;51.176;6.738;2022-07-09T02:21:57;17.70;55.60
48551;DHT22;34397;51.176;6.738;2022-07-09T02:24:29;17.70;55.50
48551;DHT22;34397;51.176;6.738;2022-07-09T02:27:01;17.70;55.40
48551;DHT22;34397;51.176;6.738;2022-07-09T02:29:33;17.70;55.20
48551;DHT22;34397;51.176;6.738;2022-07-09T02:32:06;17.80;55.10
48551;DHT22;34397;51.176;6.738;2022-07-09T02:34:40;17.80;55.20
48551;DHT22;34397;51.176;6.738;2022-07-09T02:37:13;17.80;55.10
48551;DHT22;34397;51.176;6.738;2022-07-09T02:39:45;17.80;54.90
48551;DHT22;34397;51.176;6.738;2022-07-09T02:42:17;17.80;54.00
48551;DHT22;34397;51.176;6.738;2022-07-09T02:44:49;17.90;54.70
48551;DHT22;34397;51.176;6.738;2022-07-09T02:47:21;17.80;54.70
48551;DHT22;34397;51.176;6.738;2022-07-09T02:49:52;17.80;54.70
48551;DHT22;34397;51.176;6.738;2022-07-09T02:52:26;17.80;54.70
48551;DHT22;34397;51.176;6.738;2022-07-09T02:54:57;17.80;54.80
48551;DHT22;34397;51.176;6.738;2022-07-09T02:57:29;17.80;54.00
48551;DHT22;34397;51.176;6.738;2022-07-09T03:00:01;17.80;54.50
48551;DHT22;34397;51.176;6.738;2022-07-09T03:02:34;17.70;54.60
48551;DHT22;34397;51.176;6.738;2022-07-09T03:05:07;17.70;54.90
48551;DHT22;34397;51.176;6.738;2022-07-09T03:07:40;17.60;55.10
48551;DHT22;34397;51.176;6.738;2022-07-09T03:10:12;17.50;55.30
48551;DHT22;34397;51.176;6.738;2022-07-09T03:12:44;17.50;55.40
48551;DHT22;34397;51.176;6.738;2022-07-09T03:15:16;17.40;55.50
48551;DHT22;34397;51.176;6.738;2022-07-09T03:17:48;17.40;55.70
48551;DHT22;34397;51.176;6.738;2022-07-09T03:20:20;17.30;55.60
48551;DHT22;34397;51.176;6.738;2022-07-09T03:22:53;17.30;55.70
48551;DHT22;34397;51.176;6.738;2022-07-09T03:25:25;17.20;55.80
48551;DHT22;34397;51.176;6.738;2022-07-09T03:27:57;17.20;54.90
48551;DHT22;34397;51.176;6.738;2022-07-09T03:30:29;17.20;55.90
48551;DHT22;34397;51.176;6.738;2022-07-09T03:33:01;17.20;56.40
48551;DHT22;34397;51.176;6.738;2022-07-09T03:35:33;17.20;55.80
48551;DHT22;34397;51.176;6.738;2022-07-09T03:38:06;17.20;55.90
48551;DHT22;34397;51.176;6.738;2022-07-09T03:40:38;17.20;55.90
48551;DHT22;34397;51.176;6.738;2022-07-09T03:43:09;17.30;56.00
48551;DHT22;34397;51.176;6.738;2022-07-09T03:45:41;17.30;56.00
48551;DHT22;34397;51.176;6.738;2022-07-09T03:48:13;17.20;56.00
48551;DHT22;34397;51.176;6.738;2022-07-09T03:50:45;17.20;55.90
48551;DHT22;34397;51.176;6.738;2022-07-09T03:53:18;17.20;55.90
48551;DHT22;34397;51.176;6.738;2022-07-09T03:55:50;17.20;56.20
48551;DHT22;34397;51.176;6.738;2022-07-09T03:58:22;17.20;55.30
48551;DHT22;34397;51.176;6.738;2022-07-09T04:00:53;17.20;55.90
48551;DHT22;34397;51.176;6.738;2022-07-09T04:03:25;17.20;56.00
48551;DHT22;34397;51.176;6.738;2022-07-09T04:05:57;17.20;56.20
48551;DHT22;34397;51.176;6.738;2022-07-09T04:08:30;17.20;56.30
48551;DHT22;34397;51.176;6.738;2022-07-09T04:11:02;17.10;56.40
48551;DHT22;34397;51.176;6.738;2022-07-09T04:13:34;17.10;56.40
48551;DHT22;34397;51.176;6.738;2022-07-09T04:16:06;17.10;56.40
48551;DHT22;34397;51.176;6.738;2022-07-09T04:18:38;17.10;56.70
48551;DHT22;34397;51.176;6.738;2022-07-09T04:21:13;17.10;56.60
48551;DHT22;34397;51.176;6.738;2022-07-09T04:23:46;17.10;56.70
48551;DHT22;34397;51.176;6.738;2022-07-09T04:26:17;17.10;57.00
48551;DHT22;34397;51.176;6.738;2022-07-09T04:28:50;17.10;55.80
48551;DHT22;34397;51.176;6.738;2022-07-09T04:31:21;17.10;57.00
48551;DHT22;34397;51.176;6.738;2022-07-09T04:33:53;17.10;56.50
48551;DHT22;34397;51.176;6.738;2022-07-09T04:36:25;17.10;56.60
48551;DHT22;34397;51.176;6.738;2022-07-09T04:38:59;17.10;56.80
48551;DHT22;34397;51.176;6.738;2022-07-09T04:41:31;17.20;57.00
48551;DHT22;34397;51.176;6.738;2022-07-09T04:44:04;17.20;56.80
48551;DHT22;34397;51.176;6.738;2022-07-09T04:46:36;17.20;55.80
48551;DHT22;34397;51.176;6.738;2022-07-09T04:49:08;17.20;56.40
48551;DHT22;34397;51.176;6.738;2022-07-09T04:51:40;17.30;56.70
48551;DHT22;34397;51.176;6.738;2022-07-09T04:54:13;17.30;56.70
48551;DHT22;34397;51.176;6.738;2022-07-09T04:56:44;17.30;57.10
48551;DHT22;34397;51.176;6.738;2022-07-09T04:59:16;17.30;56.50
48551;DHT22;34397;51.176;6.738;2022-07-09T05:01:48;17.30;57.00
48551;DHT22;34397;51.176;6.738;2022-07-09T05:04:20;17.30;56.90
48551;DHT22;34397;51.176;6.738;2022-07-09T05:06:52;17.30;57.10
48551;DHT22;34397;51.176;6.738;2022-07-09T05:09:25;17.30;57.80
48551;DHT22;34397;51.176;6.738;2022-07-09T05:11:57;17.30;58.30
48551;DHT22;34397;51.176;6.738;2022-07-09T05:14:29;17.30;58.30
48551;DHT22;34397;51.176;6.738;2022-07-09T05:17:00;17.30;58.30
48551;DHT22;34397;51.176;6.738;2022-07-09T05:19:32;17.30;57.60
48551;DHT22;34397;51.176;6.738;2022-07-09T05:22:04;17.40;57.70
48551;DHT22;34397;51.176;6.738;2022-07-09T05:24:37;17.40;58.00
48551;DHT22;34397;51.176;6.738;2022-07-09T05:27:10;17.40;58.30
48551;DHT22;34397;51.176;6.738;2022-07-09T05:29:42;17.40;58.40
48551;DHT22;34397;51.176;6.738;2022-07-09T05:32:14;17.40;58.60
48551;DHT22;34397;51.176;6.738;2022-07-09T05:34:46;17.40;59.00
48551;DHT22;34397;51.176;6.738;2022-07-09T05:37:18;17.30;59.20
48551;DHT22;34397;51.176;6.738;2022-07-09T05:39:51;17.30;59.40
48551;DHT22;34397;51.176;6.738;2022-07-09T05:42:23;17.30;59.70
48551;DHT22;34397;51.176;6.738;2022-07-09T05:44:55;17.30;59.90
48551;DHT22;34397;51.176;6.738;2022-07-09T05:47:27;17.20;60.20
48551;DHT22;34397;51.176;6.738;2022-07-09T05:49:59;17.20;60.90
48551;DHT22;34397;51.176;6.738;2022-07-09T05:52:30;17.10;60.10
48551;DHT22;34397;51.176;6.738;2022-07-09T05:55:04;17.20;60.40
48551;DHT22;34397;51.176;6.738;2022-07-09T05:57:36;17.20;60.60
48551;DHT22;34397;51.176;6.738;2022-07-09T06:00:09;17.20;60.50
48551;DHT22;34397;51.176;6.738;2022-07-09T06:02:42;17.20;60.70
48551;DHT22;34397;51.176;6.738;2022-07-09T06:05:14;17.30;60.50
48551;DHT22;34397;51.176;6.738;2022-07-09T06:07:46;17.30;60.20
48551;DHT22;34397;51.176;6.738;2022-07-09T06:10:19;17.30;60.70
48551;DHT22;34397;51.176;6.738;2022-07-09T06:12:51;17.40;60.80
48551;DHT22;34397;51.176;6.738;2022-07-09T06:15:23;17.40;60.60
48551;DHT22;34397;51.176;6.738;2022-07-09T06:17:55;17.50;60.90
48551;DHT22;34397;51.176;6.738;2022-07-09T06:20:27;17.50;61.00
48551;DHT22;34397;51.176;6.738;2022-07-09T06:22:59;17.60;60.90
48551;DHT22;34397;51.176;6.738;2022-07-09T06:25:32;17.60;61.00
48551;DHT22;34397;51.176;6.738;2022-07-09T06:28:04;17.70;61.10
48551;DHT22;34397;51.176;6.738;2022-07-09T06:30:36;17.70;60.80
48551;DHT22;34397;51.176;6.738;2022-07-09T06:33:08;17.70;61.20
48551;DHT22;34397;51.176;6.738;2022-07-09T06:35:40;17.70;60.10
48551;DHT22;34397;51.176;6.738;2022-07-09T06:38:12;17.80;59.30
48551;DHT22;34397;51.176;6.738;2022-07-09T06:40:45;17.80;59.60
48551;DHT22;34397;51.176;6.738;2022-07-09T06:43:17;17.90;59.80
48551;DHT22;34397;51.176;6.738;2022-07-09T06:45:49;17.90;59.60
48551;DHT22;34397;51.176;6.738;2022-07-09T06:48:21;17.90;59.10
48551;DHT22;34397;51.176;6.738;2022-07-09T06:50:52;18.00;59.00
48551;DHT22;34397;51.176;6.738;2022-07-09T06:53:24;18.00;58.70
48551;DHT22;34397;51.176;6.738;2022-07-09T06:55:57;18.10;58.50
48551;DHT22;34397;51.176;6.738;2022-07-09T06:58:29;18.10;58.50
48551;DHT22;34397;51.176;6.738;2022-07-09T07:01:01;18.20;57.60
48551;DHT22;34397;51.176;6.738;2022-07-09T07:03:33;18.30;57.40
48551;DHT22;34397;51.176;6.738;2022-07-09T07:06:05;18.30;56.80
48551;DHT22;34397;51.176;6.738;2022-07-09T07:08:37;18.40;56.60
48551;DHT22;34397;51.176;6.738;2022-07-09T07:11:10;18.40;56.20
48551;DHT22;34397;51.176;6.738;2022-07-09T07:13:42;18.50;56.60
48551;DHT22;34397;51.176;6.738;2022-07-09T07:16:13;18.60;55.30
48551;DHT22;34397;51.176;6.738;2022-07-09T07:18:45;18.70;55.20
48551;DHT22;34397;51.176;6.738;2022-07-09T07:21:17;18.70;55.10
48551;DHT22;34397;51.176;6.738;2022-07-09T07:23:49;18.80;54.70
48551;DHT22;34397;51.176;6.738;2022-07-09T07:26:22;18.90;54.70
48551;DHT22;34397;51.176;6.738;2022-07-09T07:28:54;18.90;53.80
48551;DHT22;34397;51.176;6.738;2022-07-09T07:31:26;19.00;54.10
48551;DHT22;34397;51.176;6.738;2022-07-09T07:33:58;19.00;53.30
48551;DHT22;34397;51.176;6.738;2022-07-09T07:36:30;19.10;53.60
48551;DHT22;34397;51.176;6.738;2022-07-09T07:39:02;19.10;53.40
48551;DHT22;34397;51.176;6.738;2022-07-09T07:41:36;19.20;52.70
48551;DHT22;34397;51.176;6.738;2022-07-09T07:44:07;19.20;52.90
48551;DHT22;34397;51.176;6.738;2022-07-09T07:46:39;19.30;52.90
48551;DHT22;34397;51.176;6.738;2022-07-09T07:49:11;19.30;52.90
48551;DHT22;34397;51.176;6.738;2022-07-09T07:51:43;19.40;52.40
48551;DHT22;34397;51.176;6.738;2022-07-09T07:54:15;19.40;52.70
48551;DHT22;34397;51.176;6.738;2022-07-09T07:56:48;19.50;52.20
48551;DHT22;34397;51.176;6.738;2022-07-09T07:59:21;19.50;52.60
48551;DHT22;34397;51.176;6.738;2022-07-09T08:01:53;19.60;51.90
48551;DHT22;34397;51.176;6.738;2022-07-09T08:04:25;19.70;51.90
48551;DHT22;34397;51.176;6.738;2022-07-09T08:06:57;19.80;52.10
48551;DHT22;34397;51.176;6.738;2022-07-09T08:09:29;19.90;52.10
48551;DHT22;34397;51.176;6.738;2022-07-09T08:12:05;20.00;51.80
48551;DHT22;34397;51.176;6.738;2022-07-09T08:14:38;20.10;51.90
48551;DHT22;34397;51.176;6.738;2022-07-09T08:17:10;20.30;50.80
48551;DHT22;34397;51.176;6.738;2022-07-09T08:19:41;20.40;49.90
48551;DHT22;34397;51.176;6.738;2022-07-09T08:22:13;20.50;49.90
48551;DHT22;34397;51.176;6.738;2022-07-09T08:24:45;20.50;50.20
48551;DHT22;34397;51.176;6.738;2022-07-09T08:27:18;20.60;49.60
48551;DHT22;34397;51.176;6.738;2022-07-09T08:29:50;20.70;49.20
48551;DHT22;34397;51.176;6.738;2022-07-09T08:32:22;20.80;49.40
48551;DHT22;34397;51.176;6.738;2022-07-09T08:34:54;20.80;49.40
48551;DHT22;34397;51.176;6.738;2022-07-09T08:37:25;20.90;48.70
48551;DHT22;34397;51.176;6.738;2022-07-09T08:39:57;20.90;49.00
48551;DHT22;34397;51.176;6.738;2022-07-09T08:42:31;21.00;48.70
48551;DHT22;34397;51.176;6.738;2022-07-09T08:45:03;21.00;47.70
48551;DHT22;34397;51.176;6.738;2022-07-09T08:47:40;21.10;47.70
48551;DHT22;34397;51.176;6.738;2022-07-09T08:50:12;21.10;47.60
48551;DHT22;34397;51.176;6.738;2022-07-09T08:52:45;21.20;48.60
48551;DHT22;34397;51.176;6.738;2022-07-09T08:55:17;21.30;47.00
48551;DHT22;34397;51.176;6.738;2022-07-09T08:57:50;21.30;47.30
48551;DHT22;34397;51.176;6.738;2022-07-09T09:00:22;21.40;47.70
48551;DHT22;34397;51.176;6.738;2022-07-09T09:02:54;21.50;46.70
48551;DHT22;34397;51.176;6.738;2022-07-09T09:05:26;21.50;46.80
48551;DHT22;34397;51.176;6.738;2022-07-09T09:07:58;21.50;46.50
48551;DHT22;34397;51.176;6.738;2022-07-09T09:10:30;21.50;46.90
48551;DHT22;34397;51.176;6.738;2022-07-09T09:13:03;21.50;46.70
48551;DHT22;34397;51.176;6.738;2022-07-09T09:15:35;21.60;46.70
48551;DHT22;34397;51.176;6.738;2022-07-09T09:18:07;21.60;46.60
48551;DHT22;34397;51.176;6.738;2022-07-09T09:20:44;21.60;46.80
48551;DHT22;34397;51.176;6.738;2022-07-09T09:23:17;21.70;46.40
48551;DHT22;34397;51.176;6.738;2022-07-09T09:25:49;21.70;45.50
48551;DHT22;34397;51.176;6.738;2022-07-09T09:28:22;21.80;45.50
48551;DHT22;34397;51.176;6.738;2022-07-09T09:30:54;21.80;45.60
48551;DHT22;34397;51.176;6.738;2022-07-09T09:33:26;21.80;46.20
48551;DHT22;34397;51.176;6.738;2022-07-09T09:35:58;21.90;45.10
48551;DHT22;34397;51.176;6.738;2022-07-09T09:38:29;22.10;46.40
48551;DHT22;34397;51.176;6.738;2022-07-09T09:41:01;22.40;44.00
48551;DHT22;34397;51.176;6.738;2022-07-09T09:43:35;22.60;43.40
48551;DHT22;34397;51.176;6.738;2022-07-09T09:46:08;22.90;43.00
48551;DHT22;34397;51.176;6.738;2022-07-09T09:48:42;23.10;43.40
48551;DHT22;34397;51.176;6.738;2022-07-09T09:51:16;23.30;43.60
48551;DHT22;34397;51.176;6.738;2022-07-09T09:53:51;23.50;43.60
48551;DHT22;34397;51.176;6.738;2022-07-09T09:56:24;23.60;42.50
48551;DHT22;34397;51.176;6.738;2022-07-09T09:58:58;23.70;43.40
48551;DHT22;34397;51.176;6.738;2022-07-09T10:01:31;23.80;43.70
48551;DHT22;34397;51.176;6.738;2022-07-09T10:04:03;24.00;43.40
48551;DHT22;34397;51.176;6.738;2022-07-09T10:06:36;24.10;42.10
48551;DHT22;34397;51.176;6.738;2022-07-09T10:09:11;24.30;42.30
48551;DHT22;34397;51.176;6.738;2022-07-09T10:11:45;24.40;42.70
48551;DHT22;34397;51.176;6.738;2022-07-09T10:14:30;24.50;42.00
48551;DHT22;34397;51.176;6.738;2022-07-09T10:17:10;24.70;41.80
48551;DHT22;34397;51.176;6.738;2022-07-09T10:19:53;24.80;41.50
48551;DHT22;34397;51.176;6.738;2022-07-09T10:22:34;24.90;40.50
48551;DHT22;34397;51.176;6.738;2022-07-09T10:25:08;25.10;40.70
48551;DHT22;34397;51.176;6.738;2022-07-09T10:27:42;25.20;40.60
48551;DHT22;34397;51.176;6.738;2022-07-09T10:30:26;25.30;39.50
48551;DHT22;34397;51.176;6.738;2022-07-09T10:33:04;25.30;39.30
48551;DHT22;34397;51.176;6.738;2022-07-09T10:35:41;25.30;38.70
48551;DHT22;34397;51.176;6.738;2022-07-09T10:38:14;25.20;38.90
48551;DHT22;34397;51.176;6.738;2022-07-09T10:40:55;25.20;39.00
48551;DHT22;34397;51.176;6.738;2022-07-09T10:43:41;25.10;38.70
48551;DHT22;34397;51.176;6.738;2022-07-09T10:46:17;25.10;39.10
48551;DHT22;34397;51.176;6.738;2022-07-09T10:48:50;25.00;39.30
48551;DHT22;34397;51.176;6.738;2022-07-09T10:51:22;24.90;39.20
48551;DHT22;34397;51.176;6.738;2022-07-09T10:53:54;24.80;40.40
48551;DHT22;34397;51.176;6.738;2022-07-09T10:56:26;24.60;40.90
48551;DHT22;34397;51.176;6.738;2022-07-09T10:58:58;24.50;40.60
48551;DHT22;34397;51.176;6.738;2022-07-09T11:01:32;24.40;39.90
48551;DHT22;34397;51.176;6.738;2022-07-09T11:04:04;24.30;40.40
48551;DHT22;34397;51.176;6.738;2022-07-09T11:06:44;24.30;40.00
48551;DHT22;34397;51.176;6.738;2022-07-09T11:09:16;24.30;39.40
48551;DHT22;34397;51.176;6.738;2022-07-09T11:11:48;24.50;40.30
48551;DHT22;34397;51.176;6.738;2022-07-09T11:14:20;24.50;40.30
48551;DHT22;34397;51.176;6.738;2022-07-09T11:16:57;24.60;42.50
48551;DHT22;34397;51.176;6.738;2022-07-09T11:19:30;24.70;40.10
48551;DHT22;34397;51.176;6.738;2022-07-09T11:22:02;24.80;40.90
48551;DHT22;34397;51.176;6.738;2022-07-09T11:24:34;25.10;40.20
48551;DHT22;34397;51.176;6.738;2022-07-09T11:27:08;25.40;40.30
48551;DHT22;34397;51.176;6.738;2022-07-09T11:29:46;25.60;40.00
48551;DHT22;34397;51.176;6.738;2022-07-09T11:32:19;25.90;39.00
48551;DHT22;34397;51.176;6.738;2022-07-09T11:34:51;25.90;38.60
48551;DHT22;34397;51.176;6.738;2022-07-09T11:37:23;25.70;39.50
48551;DHT22;34397;51.176;6.738;2022-07-09T11:39:56;25.80;39.70
48551;DHT22;34397;51.176;6.738;2022-07-09T11:42:28;26.00;39.90
48551;DHT22;34397;51.176;6.738;2022-07-09T11:45:00;26.20;39.40
48551;DHT22;34397;51.176;6.738;2022-07-09T11:47:34;26.30;38.60
48551;DHT22;34397;51.176;6.738;2022-07-09T11:50:08;26.30;39.20
48551;DHT22;34397;51.176;6.738;2022-07-09T11:52:46;26.30;38.30
48551;DHT22;34397;51.176;6.738;2022-07-09T11:55:19;26.30;38.70
48551;DHT22;34397;51.176;6.738;2022-07-09T11:57:53;26.30;38.80
48551;DHT22;34397;51.176;6.738;2022-07-09T12:00:27;26.20;38.80
48551;DHT22;34397;51.176;6.738;2022-07-09T12:03:02;26.20;39.20
48551;DHT22;34397;51.176;6.738;2022-07-09T12:05:36;26.20;38.90
48551;DHT22;34397;51.176;6.738;2022-07-09T12:08:09;26.10;38.80
48551;DHT22;34397;51.176;6.738;2022-07-09T12:10:41;26.00;38.80
48551;DHT22;34397;51.176;6.738;2022-07-09T12:13:13;25.80;38.90
48551;DHT22;34397;51.176;6.738;2022-07-09T12:15:45;25.90;39.30
48551;DHT22;34397;51.176;6.738;2022-07-09T12:18:18;25.90;38.90
48551;DHT22;34397;51.176;6.738;2022-07-09T12:20:50;26.10;38.80
48551;DHT22;34397;51.176;6.738;2022-07-09T12:23:21;26.10;38.60
48551;DHT22;34397;51.176;6.738;2022-07-09T12:25:53;26.20;38.80
48551;DHT22;34397;51.176;6.738;2022-07-09T12:28:25;26.20;39.20
48551;DHT22;34397;51.176;6.738;2022-07-09T12:30:57;26.40;39.10
48551;DHT22;34397;51.176;6.738;2022-07-09T12:33:30;26.60;39.40
48551;DHT22;34397;51.176;6.738;2022-07-09T12:36:02;26.60;38.30
48551;DHT22;34397;51.176;6.738;2022-07-09T12:38:34;26.60;38.30
48551;DHT22;34397;51.176;6.738;2022-07-09T12:41:06;26.70;38.40
48551;DHT22;34397;51.176;6.738;2022-07-09T12:43:38;26.70;38.10
48551;DHT22;34397;51.176;6.738;2022-07-09T12:46:09;26.60;38.10
48551;DHT22;34397;51.176;6.738;2022-07-09T12:48:43;26.60;38.40
48551;DHT22;34397;51.176;6.738;2022-07-09T12:51:14;26.40;38.50
48551;DHT22;34397;51.176;6.738;2022-07-09T12:53:46;26.20;39.10
48551;DHT22;34397;51.176;6.738;2022-07-09T12:56:18;25.90;39.40
48551;DHT22;34397;51.176;6.738;2022-07-09T12:58:50;25.70;39.80
48551;DHT22;34397;51.176;6.738;2022-07-09T13:01:22;25.40;40.20
48551;DHT22;34397;51.176;6.738;2022-07-09T13:03:55;25.20;40.80
48551;DHT22;34397;51.176;6.738;2022-07-09T13:06:27;25.00;41.50
48551;DHT22;34397;51.176;6.738;2022-07-09T13:09:07;24.70;41.80
48551;DHT22;34397;51.176;6.738;2022-07-09T13:11:39;24.50;42.30
48551;DHT22;34397;51.176;6.738;2022-07-09T13:14:12;24.30;42.90
48551;DHT22;34397;51.176;6.738;2022-07-09T13:16:43;24.20;43.50
48551;DHT22;34397;51.176;6.738;2022-07-09T13:19:16;24.10;43.50
48551;DHT22;34397;51.176;6.738;2022-07-09T13:21:48;24.00;43.70
48551;DHT22;34397;51.176;6.738;2022-07-09T13:24:20;24.00;44.00
48551;DHT22;34397;51.176;6.738;2022-07-09T13:26:52;23.80;44.20
48551;DHT22;34397;51.176;6.738;2022-07-09T13:29:24;23.70;44.50
48551;DHT22;34397;51.176;6.738;2022-07-09T13:31:56;23.70;44.50
48551;DHT22;34397;51.176;6.738;2022-07-09T13:34:29;23.60;44.70
48551;DHT22;34397;51.176;6.738;2022-07-09T13:37:01;23.60;45.20
48551;DHT22;34397;51.176;6.738;2022-07-09T13:39:33;23.70;45.60
48551;DHT22;34397;51.176;6.738;2022-07-09T13:42:05;23.80;45.40
48551;DHT22;34397;51.176;6.738;2022-07-09T13:44:37;24.00;44.90
48551;DHT22;34397;51.176;6.738;2022-07-09T13:47:09;24.10;44.40
48551;DHT22;34397;51.176;6.738;2022-07-09T13:49:42;24.30;44.00
48551;DHT22;34397;51.176;6.738;2022-07-09T13:52:14;24.50;43.30
48551;DHT22;34397;51.176;6.738;2022-07-09T13:54:46;24.90;43.10
48551;DHT22;34397;51.176;6.738;2022-07-09T13:57:18;25.10;43.60
48551;DHT22;34397;51.176;6.738;2022-07-09T13:59:50;25.30;43.30
48551;DHT22;34397;51.176;6.738;2022-07-09T14:02:22;25.50;43.20
48551;DHT22;34397;51.176;6.738;2022-07-09T14:04:56;25.60;43.20
48551;DHT22;34397;51.176;6.738;2022-07-09T14:07:28;25.80;43.00
48551;DHT22;34397;51.176;6.738;2022-07-09T14:10:00;25.90;42.80
48551;DHT22;34397;51.176;6.738;2022-07-09T14:12:32;26.00;42.30
48551;DHT22;34397;51.176;6.738;2022-07-09T14:15:04;26.00;43.10
48551;DHT22;34397;51.176;6.738;2022-07-09T14:17:37;26.20;42.80
48551;DHT22;34397;51.176;6.738;2022-07-09T14:20:11;26.40;41.30
48551;DHT22;34397;51.176;6.738;2022-07-09T14:22:43;26.50;40.50
48551;DHT22;34397;51.176;6.738;2022-07-09T14:25:15;26.60;40.20
48551;DHT22;34397;51.176;6.738;2022-07-09T14:27:47;26.60;40.10
48551;DHT22;34397;51.176;6.738;2022-07-09T14:30:19;26.50;40.00
48551;DHT22;34397;51.176;6.738;2022-07-09T14:32:51;26.50;39.70
48551;DHT22;34397;51.176;6.738;2022-07-09T14:35:24;26.40;39.50
48551;DHT22;34397;51.176;6.738;2022-07-09T14:37:56;26.40;39.70
48551;DHT22;34397;51.176;6.738;2022-07-09T14:40:28;26.40;39.60
48551;DHT22;34397;51.176;6.738;2022-07-09T14:43:00;26.40;39.70
48551;DHT22;34397;51.176;6.738;2022-07-09T14:45:32;26.40;39.60
48551;DHT22;34397;51.176;6.738;2022-07-09T14:48:04;26.40;40.40
48551;DHT22;34397;51.176;6.738;2022-07-09T14:50:39;26.50;40.40
48551;DHT22;34397;51.176;6.738;2022-07-09T14:53:11;26.60;39.90
48551;DHT22;34397;51.176;6.738;2022-07-09T14:55:43;26.60;38.50
48551;DHT22;34397;51.176;6.738;2022-07-09T14:58:15;26.60;38.90
48551;DHT22;34397;51.176;6.738;2022-07-09T15:00:47;26.60;38.70
48551;DHT22;34397;51.176;6.738;2022-07-09T15:03:19;26.40;38.70
48551;DHT22;34397;51.176;6.738;2022-07-09T15:05:52;26.30;38.90
48551;DHT22;34397;51.176;6.738;2022-07-09T15:08:24;26.20;39.70
48551;DHT22;34397;51.176;6.738;2022-07-09T15:10:56;26.10;38.90
48551;DHT22;34397;51.176;6.738;2022-07-09T15:13:28;26.10;38.80
48551;DHT22;34397;51.176;6.738;2022-07-09T15:16:00;26.00;38.80
48551;DHT22;34397;51.176;6.738;2022-07-09T15:18:32;25.90;39.00
48551;DHT22;34397;51.176;6.738;2022-07-09T15:21:05;25.90;38.80
48551;DHT22;34397;51.176;6.738;2022-07-09T15:23:38;25.80;38.60
48551;DHT22;34397;51.176;6.738;2022-07-09T15:26:10;25.70;38.30
48551;DHT22;34397;51.176;6.738;2022-07-09T15:28:42;25.60;38.00
48551;DHT22;34397;51.176;6.738;2022-07-09T15:31:15;25.50;37.50
48551;DHT22;34397;51.176;6.738;2022-07-09T15:33:47;25.40;38.00
48551;DHT22;34397;51.176;6.738;2022-07-09T15:36:20;25.40;39.60
48551;DHT22;34397;51.176;6.738;2022-07-09T15:38:52;25.40;39.00
48551;DHT22;34397;51.176;6.738;2022-07-09T15:41:24;25.40;39.10
48551;DHT22;34397;51.176;6.738;2022-07-09T15:43:57;25.50;38.90
48551;DHT22;34397;51.176;6.738;2022-07-09T15:46:31;25.50;38.90
48551;DHT22;34397;51.176;6.738;2022-07-09T15:49:03;25.50;38.80
48551;DHT22;34397;51.176;6.738;2022-07-09T15:51:37;25.50;39.10
48551;DHT22;34397;51.176;6.738;2022-07-09T15:54:08;25.50;38.80
48551;DHT22;34397;51.176;6.738;2022-07-09T15:56:40;25.50;38.30
48551;DHT22;34397;51.176;6.738;2022-07-09T15:59:12;25.40;38.30
48551;DHT22;34397;51.176;6.738;2022-07-09T16:01:44;25.40;38.20
48551;DHT22;34397;51.176;6.738;2022-07-09T16:04:17;25.40;38.30